Time;durP1;ratioP1;P1;durP2;ratioP2;P2;SDS_P1;SDS_P2;PMS_P1;PMS_P2;Temp;Humidity;BMP_temperature;BMP_pressure;BME280_temperature;BME280_humidity;BME280_pressure;Samples;Min_cycle;Max_cycle;Signal;HPM_P1;HPM_P2
2023/07/02 00:02:05;;;;;;;11.30;10.30;;;;;;;18.29;98.08;96923.48;107021;1276;22759;-78
2023/07/02 00:04:31;;;;;;;14.30;12.60;;;;;;;18.38;99.15;96923.02;107065;1276;22605;-78
2023/07/02 00:06:58;;;;;;;26.10;23.50;;;;;;;18.44;97.71;96923.72;107014;1276;22534;-77
2023/07/02 00:09:25;;;;;;;17.30;15.70;;;;;;;18.34;97.65;96922.98;106773;1276;25514;-77
2023/07/02 00:11:51;;;;;;;12.30;11.10;;;;;;;18.25;97.88;96919.54;106766;1276;22542;-77
2023/07/02 00:14:18;;;;;;;11.40;9.40;;;;;;;18.26;99.21;96916.59;107138;1276;22530;-77
2023/07/02 00:16:46;;;;;;;10.60;9.60;;;;;;;18.37;98.72;96922.71;107018;1276;25354;-77
2023/07/02 00:19:14;;;;;;;13.20;11.90;;;;;;;18.38;98.45;96917.56;107300;1276;22559;-77
2023/07/02 00:21:41;;;;;;;11.10;10.00;;;;;;;18.37;98.54;96922.24;107436;1276;25430;-76
2023/07/02 00:24:12;;;;;;;12.70;11.30;;;;;;;18.30;98.11;96920.99;106949;1276;25483;-76
2023/07/02 00:26:40;;;;;;;10.80;9.80;;;;;;;18.26;98.43;96918.21;106770;1276;22527;-77
2023/07/02 00:29:09;;;;;;;10.50;9.50;;;;;;;18.33;99.67;96918.77;106868;1276;25466;-75
2023/07/02 00:31:36;;;;;;;12.40;9.90;;;;;;;18.38;98.54;96921.24;106488;1266;22545;-76
2023/07/02 00:34:04;;;;;;;12.60;11.30;;;;;;;18.28;98.17;96920.81;106824;1276;26520;-76
2023/07/02 00:36:31;;;;;;;12.70;11.50;;;;;;;18.23;98.57;96912.66;106787;1276;23896;-76
2023/07/02 00:38:58;;;;;;;8.80;7.80;;;;;;;18.21;98.68;96918.02;107061;1276;22956;-76
2023/07/02 00:41:26;;;;;;;11.20;10.20;;;;;;;18.32;99.98;96917.44;107032;1276;24193;-76
2023/07/02 00:43:54;;;;;;;11.50;9.90;;;;;;;18.46;99.43;96922.19;106936;1276;24369;-76
2023/07/02 00:46:25;;;;;;;13.20;12.00;;;;;;;18.39;98.35;96921.17;107019;1276;24333;-76
2023/07/02 00:48:53;;;;;;;11.80;10.60;;;;;;;18.24;98.24;96917.27;106821;1276;24305;-76
2023/07/02 00:51:25;;;;;;;13.80;12.40;;;;;;;18.13;98.23;96918.92;107062;1276;25223;-76
2023/07/02 00:53:56;;;;;;;12.30;11.10;;;;;;;18.02;98.01;96918.49;106813;1276;25287;-75
2023/07/02 00:56:25;;;;;;;12.90;11.60;;;;;;;17.93;98.48;96911.52;106504;1276;25230;-75
2023/07/02 00:58:54;;;;;;;14.90;11.90;;;;;;;18.04;99.40;96908.79;106584;1276;22541;-76
2023/07/02 01:01:22;;;;;;;13.50;10.80;;;;;;;18.11;98.79;96904.98;106782;1276;22535;-76
2023/07/02 01:03:59;;;;;;;14.10;12.50;;;;;;;18.09;98.65;96906.59;106815;1276;23953;-76
2023/07/02 01:06:31;;;;;;;14.70;13.30;;;;;;;18.02;98.91;96906.34;106586;1277;25495;-76
2023/07/02 01:09:00;;;;;;;15.40;13.80;;;;;;;17.96;98.98;96901.60;106538;1276;24233;-76
2023/07/02 01:11:33;;;;;;;13.30;12.00;;;;;;;17.91;98.95;96908.63;106849;1276;25268;-76
2023/07/02 01:14:11;;;;;;;13.30;12.00;;;;;;;17.91;99.10;96906.61;106864;1276;25399;-78
2023/07/02 01:16:42;;;;;;;18.00;13.20;;;;;;;17.90;99.37;96905.13;106513;1276;25389;-79
2023/07/02 01:19:18;;;;;;;17.90;11.70;;;;;;;17.92;99.36;96899.53;106839;1277;22645;-76
2023/07/02 01:21:47;;;;;;;12.80;11.10;;;;;;;17.86;99.41;96901.87;106780;1276;22591;-76
2023/07/02 01:24:16;;;;;;;13.20;11.80;;;;;;;17.86;99.72;96901.48;106865;1277;22612;-76
2023/07/02 01:26:45;;;;;;;13.40;11.70;;;;;;;17.85;99.79;96893.06;107037;1276;22531;-75
2023/07/02 01:29:17;;;;;;;12.90;11.80;;;;;;;17.88;99.97;96895.19;106767;1277;22535;-76
2023/07/02 01:31:44;;;;;;;13.30;11.90;;;;;;;17.86;100.00;96889.10;107015;1277;23548;-76
2023/07/02 01:34:12;;;;;;;13.90;12.10;;;;;;;17.84;100.00;96889.63;106996;1277;25239;-76
2023/07/02 01:36:39;;;;;;;16.40;12.30;;;;;;;17.79;100.00;96888.32;106999;1277;22618;-76
2023/07/02 01:39:06;;;;;;;13.10;11.80;;;;;;;17.77;100.00;96883.14;106998;1277;25405;-76
2023/07/02 01:41:42;;;;;;;13.30;12.20;;;;;;;17.82;100.00;96886.01;106792;1276;22647;-77
2023/07/02 01:44:09;;;;;;;11.60;10.50;;;;;;;17.80;99.98;96883.03;106995;1276;22646;-77
2023/07/02 01:46:37;;;;;;;14.20;12.40;;;;;;;17.98;100.00;96884.66;106889;1276;24085;-76
2023/07/02 01:49:05;;;;;;;13.90;10.10;;;;;;;18.26;100.00;96878.88;107066;1276;23947;-76
2023/07/02 01:51:33;;;;;;;14.30;11.90;;;;;;;18.38;100.00;96881.97;106797;1276;25278;-76
2023/07/02 01:54:00;;;;;;;11.90;10.20;;;;;;;18.41;100.00;96879.27;106823;1259;22530;-76
2023/07/02 01:56:28;;;;;;;16.00;11.50;;;;;;;18.35;100.00;96878.04;106849;1276;22528;-76
2023/07/02 01:58:54;;;;;;;15.00;11.30;;;;;;;18.21;100.00;96877.90;106687;1276;25233;-76
2023/07/02 02:01:21;;;;;;;17.40;13.30;;;;;;;18.11;100.00;96876.00;106533;1276;25409;-77
2023/07/02 02:03:47;;;;;;;15.80;13.70;;;;;;;17.99;100.00;96871.96;107014;1277;24241;-76
2023/07/02 02:06:14;;;;;;;13.20;11.80;;;;;;;17.91;99.77;96875.22;106992;1277;25356;-77
2023/07/02 02:08:41;;;;;;;14.30;12.50;;;;;;;17.82;100.00;96873.79;106971;1277;24200;-76
2023/07/02 02:11:08;;;;;;;14.30;13.00;;;;;;;17.74;99.90;96876.70;107055;1277;22653;-77
2023/07/02 02:13:34;;;;;;;14.50;11.90;;;;;;;17.62;99.83;96882.16;106568;1276;23477;-76
2023/07/02 02:16:01;;;;;;;14.40;12.90;;;;;;;17.55;100.00;96883.48;106787;1276;22535;-75
2023/07/02 02:18:28;;;;;;;13.70;12.50;;;;;;;17.47;99.99;96883.05;106793;1277;24242;-76
2023/07/02 02:20:54;;;;;;;11.80;10.60;;;;;;;17.45;100.00;96878.20;106745;1277;22551;-76
2023/07/02 02:23:21;;;;;;;11.20;10.10;;;;;;;17.67;100.00;96879.33;107033;1256;22546;-77
2023/07/02 02:25:48;;;;;;;12.80;11.40;;;;;;;17.96;100.00;96879.02;107055;1277;24197;-75
2023/07/02 02:28:14;;;;;;;13.50;12.10;;;;;;;18.17;100.00;96877.70;106777;1277;22546;-75
2023/07/02 02:30:41;;;;;;;13.90;11.00;;;;;;;18.15;100.00;96877.44;106506;1277;24208;-75
2023/07/02 02:33:08;;;;;;;16.10;13.20;;;;;;;18.03;100.00;96880.59;106819;1276;25333;-76
2023/07/02 02:35:35;;;;;;;16.20;13.80;;;;;;;17.86;99.97;96879.30;106757;1276;22741;-76
2023/07/02 02:38:04;;;;;;;18.00;14.20;;;;;;;17.70;99.60;96882.96;106573;1277;24434;-77
2023/07/02 02:40:31;;;;;;;11.90;10.80;;;;;;;17.52;99.54;96883.59;107114;1276;22545;-76
2023/07/02 02:42:58;;;;;;;12.50;11.30;;;;;;;17.54;100.00;96883.60;106730;1277;23139;-77
2023/07/02 02:45:24;;;;;;;14.20;12.20;;;;;;;17.65;100.00;96879.55;107107;1276;22581;-76
2023/07/02 02:47:51;;;;;;;14.20;12.70;;;;;;;17.68;100.00;96880.67;106793;1276;25275;-76
2023/07/02 02:50:18;;;;;;;14.10;12.70;;;;;;;17.62;99.46;96878.73;106781;1276;22524;-77
2023/07/02 02:52:44;;;;;;;13.80;12.50;;;;;;;17.59;99.91;96879.46;106935;1276;22540;-77
2023/07/02 02:55:12;;;;;;;14.40;12.90;;;;;;;17.59;99.76;96875.19;107063;1276;23399;-76
2023/07/02 02:57:39;;;;;;;14.50;13.20;;;;;;;17.72;100.00;96878.02;107065;1276;22640;-77
2023/07/02 03:00:06;;;;;;;17.70;13.50;;;;;;;17.80;99.91;96878.76;106781;1276;25328;-76
2023/07/02 03:02:33;;;;;;;13.00;11.70;;;;;;;17.72;99.03;96880.73;106860;1276;22533;-76
2023/07/02 03:05:02;;;;;;;15.20;13.70;;;;;;;17.60;98.87;96877.16;106566;1276;22536;-75
2023/07/02 03:07:29;;;;;;;13.90;12.50;;;;;;;17.44;98.50;96873.59;106935;1276;22676;-76
2023/07/02 03:09:56;;;;;;;13.90;12.50;;;;;;;17.35;98.66;96873.39;107064;1276;22563;-77
2023/07/02 03:12:25;;;;;;;14.20;12.90;;;;;;;17.25;98.78;96869.67;106736;1276;22530;-80
2023/07/02 03:14:55;;;;;;;14.80;13.30;;;;;;;17.15;98.85;96867.98;107166;1276;22747;-80
2023/07/02 03:17:21;;;;;;;16.30;14.10;;;;;;;17.10;98.93;96867.90;106849;1276;26609;-77
2023/07/02 03:19:49;;;;;;;13.70;12.40;;;;;;;17.09;98.97;96871.69;107262;1276;22533;-78
2023/07/02 03:22:16;;;;;;;14.70;12.70;;;;;;;17.10;99.21;96875.11;106965;1276;24092;-76
2023/07/02 03:24:42;;;;;;;14.90;13.50;;;;;;;17.10;99.15;96872.64;106928;1276;25792;-77
2023/07/02 03:27:09;;;;;;;14.90;13.40;;;;;;;17.10;99.02;96871.86;106842;1276;23314;-77
2023/07/02 03:29:37;;;;;;;14.20;12.80;;;;;;;17.07;99.04;96868.95;106779;1276;25287;-77
2023/07/02 03:32:05;;;;;;;16.60;12.80;;;;;;;17.03;99.11;96875.80;106827;1276;24245;-76
2023/07/02 03:34:32;;;;;;;16.40;14.80;;;;;;;17.02;99.45;96874.62;107057;1276;22539;-76
2023/07/02 03:36:59;;;;;;;15.30;13.20;;;;;;;17.06;99.83;96879.11;107026;1276;24275;-76
2023/07/02 03:39:25;;;;;;;16.60;11.90;;;;;;;17.12;99.39;96874.23;106769;1276;25357;-76
2023/07/02 03:41:52;;;;;;;15.10;13.70;;;;;;;17.14;99.41;96873.93;106839;1276;22646;-76
2023/07/02 03:44:19;;;;;;;14.50;13.00;;;;;;;17.13;99.31;96874.23;106761;1276;24251;-77
2023/07/02 03:46:46;;;;;;;14.40;13.00;;;;;;;17.14;99.32;96877.13;106760;1276;26637;-76
2023/07/02 03:49:13;;;;;;;14.40;12.90;;;;;;;17.16;99.65;96882.07;106807;1276;22533;-77
2023/07/02 03:51:39;;;;;;;15.20;13.70;;;;;;;17.19;99.61;96880.17;107088;1276;24240;-76
2023/07/02 03:54:06;;;;;;;14.30;12.80;;;;;;;17.20;99.64;96878.54;106791;1276;22546;-76
2023/07/02 03:56:32;;;;;;;15.30;13.70;;;;;;;17.19;99.77;96879.08;106791;1276;24231;-76
2023/07/02 03:58:59;;;;;;;18.40;13.10;;;;;;;17.25;99.86;96881.02;107042;1276;22545;-77
2023/07/02 04:01:25;;;;;;;19.10;13.80;;;;;;;17.30;99.77;96880.87;107039;1276;25335;-77
2023/07/02 04:03:53;;;;;;;18.90;14.10;;;;;;;17.39;100.00;96876.17;106767;1276;24235;-75
2023/07/02 04:06:19;;;;;;;13.20;11.20;;;;;;;17.54;100.00;96874.19;106767;1276;24399;-75
2023/07/02 04:08:46;;;;;;;15.30;12.80;;;;;;;17.81;100.00;96879.29;106869;1269;22672;-74
2023/07/02 04:11:13;;;;;;;15.60;13.90;;;;;;;17.92;99.99;96875.39;106750;1276;22657;-75
2023/07/02 04:13:39;;;;;;;15.20;13.80;;;;;;;18.02;100.00;96877.77;106786;1276;22537;-76
2023/07/02 04:16:07;;;;;;;14.20;12.80;;;;;;;18.12;100.00;96881.47;106785;1276;23562;-75
2023/07/02 04:18:33;;;;;;;14.40;12.80;;;;;;;18.27;100.00;96879.20;106866;1276;22537;-76
2023/07/02 04:21:01;;;;;;;14.70;13.30;;;;;;;18.41;99.94;96881.67;106744;1276;22548;-75
2023/07/02 04:23:28;;;;;;;14.70;12.90;;;;;;;18.50;99.95;96879.83;106890;1273;22577;-75
2023/07/02 04:25:55;;;;;;;15.00;13.60;;;;;;;18.54;99.96;96885.33;106543;1276;25497;-75
2023/07/02 04:28:42;;;;;;;12.10;10.90;;;;;;;18.66;99.95;96888.23;106739;1276;22617;-76
2023/07/02 04:31:08;;;;;;;14.90;11.80;;;;;;;18.89;100.00;96887.85;106740;1275;24248;-75
2023/07/02 04:33:35;;;;;;;17.10;14.30;;;;;;;19.06;99.96;96889.91;106744;1276;22631;-76
2023/07/02 04:36:03;;;;;;;14.50;13.10;;;;;;;19.10;99.75;96894.15;106737;1276;24108;-76
2023/07/02 04:38:30;;;;;;;16.80;15.10;;;;;;;19.19;99.71;96890.79;106777;1276;22580;-75
2023/07/02 04:41:04;;;;;;;13.70;12.30;;;;;;;19.21;99.71;96890.48;106780;1276;25284;-77
2023/07/02 04:43:32;;;;;;;12.80;11.40;;;;;;;19.36;100.00;96892.46;106748;1270;213643;-76
2023/07/02 04:46:00;;;;;;;17.90;15.10;;;;;;;19.42;99.53;96894.38;107126;1276;23431;-76
2023/07/02 04:48:27;;;;;;;15.80;14.20;;;;;;;19.38;98.57;96897.30;107030;1276;22611;-76
2023/07/02 04:50:54;;;;;;;16.00;14.40;;;;;;;19.35;98.55;96899.00;106955;1276;24196;-76
2023/07/02 04:53:20;;;;;;;15.70;13.90;;;;;;;19.25;98.06;96901.75;106717;1271;22555;-76
2023/07/02 04:55:47;;;;;;;24.70;16.00;;;;;;;19.19;98.60;96902.11;106770;1276;25364;-76
2023/07/02 04:58:13;;;;;;;17.50;15.80;;;;;;;19.15;98.50;96902.54;106768;1269;22639;-75
2023/07/02 05:00:40;;;;;;;19.30;16.20;;;;;;;19.09;97.69;96909.90;106554;1276;24248;-75
2023/07/02 05:03:07;;;;;;;17.10;15.60;;;;;;;19.02;97.73;96909.54;106762;1273;24687;-75
2023/07/02 05:05:34;;;;;;;17.10;15.50;;;;;;;19.02;97.60;96906.35;106691;1276;23929;-76
2023/07/02 05:08:01;;;;;;;18.80;15.60;;;;;;;19.00;97.94;96906.88;106642;1276;24255;-77
2023/07/02 05:10:27;;;;;;;16.20;14.60;;;;;;;19.10;98.17;96905.63;106667;1277;24250;-76
2023/07/02 05:12:54;;;;;;;14.60;13.10;;;;;;;19.23;98.29;96908.68;106659;1270;22664;-76
2023/07/02 05:15:20;;;;;;;13.60;12.30;;;;;;;19.33;97.30;96909.30;106640;1276;22688;-76
2023/07/02 05:17:47;;;;;;;12.70;11.30;;;;;;;19.38;96.90;96912.84;106646;1276;22541;-76
2023/07/02 05:20:14;;;;;;;15.30;12.20;;;;;;;19.35;95.68;96912.20;106638;1276;26603;-76
2023/07/02 05:22:41;;;;;;;12.50;11.20;;;;;;;19.26;95.41;96920.41;106645;1276;22558;-77
2023/07/02 05:25:08;;;;;;;13.20;10.90;;;;;;;19.23;95.44;96926.08;106734;1277;23506;-76
2023/07/02 05:27:35;;;;;;;12.90;11.30;;;;;;;19.19;95.06;96927.85;106693;1270;25230;-77
2023/07/02 05:30:02;;;;;;;12.50;11.10;;;;;;;19.13;94.63;96929.90;106679;1277;22544;-77
2023/07/02 05:32:29;;;;;;;13.90;11.90;;;;;;;19.03;94.47;96930.92;106981;1274;22536;-76
2023/07/02 05:34:56;;;;;;;16.90;11.00;;;;;;;19.01;94.80;96932.55;106708;1277;25342;-76
2023/07/02 05:37:23;;;;;;;14.00;11.00;;;;;;;19.03;94.62;96931.39;106707;1271;24226;-76
2023/07/02 05:39:49;;;;;;;13.70;12.30;;;;;;;19.06;94.93;96935.87;106715;1269;25381;-76
2023/07/02 05:42:16;;;;;;;16.50;11.90;;;;;;;19.10;94.41;96938.46;106635;1277;22540;-76
2023/07/02 05:44:43;;;;;;;13.30;11.90;;;;;;;19.09;94.66;96938.15;106727;1276;25357;-75
2023/07/02 05:47:09;;;;;;;12.80;11.20;;;;;;;19.11;94.54;96938.31;106710;1277;24230;-76
2023/07/02 05:49:36;;;;;;;12.00;10.80;;;;;;;19.14;94.80;96940.21;106656;1277;22639;-75
2023/07/02 05:52:03;;;;;;;15.30;11.60;;;;;;;19.21;95.07;96941.20;106677;1277;25367;-75
2023/07/02 05:54:30;;;;;;;13.60;10.80;;;;;;;19.29;95.05;96943.45;106654;1277;22716;-74
2023/07/02 05:56:56;;;;;;;13.10;11.80;;;;;;;19.34;95.10;96939.66;106649;1277;25287;-75
2023/07/02 05:59:23;;;;;;;12.50;10.80;;;;;;;19.41;94.71;96938.55;106657;1273;25625;-75
2023/07/02 06:01:52;;;;;;;14.10;10.40;;;;;;;19.41;94.42;96941.59;106660;1277;24228;-76
2023/07/02 06:04:19;;;;;;;10.50;9.50;;;;;;;19.45;94.39;96939.59;106648;1270;24381;-75
2023/07/02 06:06:45;;;;;;;11.40;10.30;;;;;;;19.46;93.96;96941.84;106659;1276;23004;-75
2023/07/02 06:09:12;;;;;;;11.80;9.40;;;;;;;19.47;94.04;96941.23;106660;1274;22575;-76
2023/07/02 06:11:39;;;;;;;13.30;10.10;;;;;;;19.48;93.74;96943.83;106678;1277;24273;-75
2023/07/02 06:14:05;;;;;;;16.40;9.60;;;;;;;19.52;93.91;96943.45;106783;1276;22659;-76
2023/07/02 06:16:33;;;;;;;14.40;9.90;;;;;;;19.55;93.24;96946.67;106801;1270;24417;-74
2023/07/02 06:18:59;;;;;;;15.60;9.80;;;;;;;19.48;92.20;96949.91;106605;1270;22547;-75
2023/07/02 06:21:29;;;;;;;12.70;10.40;;;;;;;19.43;91.61;96949.80;106665;1270;22547;-76
2023/07/02 06:23:58;;;;;;;12.00;9.50;;;;;;;19.39;91.00;96952.50;106672;1273;25291;-76
2023/07/02 06:26:24;;;;;;;10.30;9.20;;;;;;;19.37;90.56;96953.96;106802;1277;24228;-75
2023/07/02 06:28:51;;;;;;;10.20;8.80;;;;;;;19.34;90.10;96958.86;106667;1254;22532;-75
2023/07/02 06:31:18;;;;;;;9.60;8.60;;;;;;;19.29;89.15;96960.85;106649;1276;22616;-76
2023/07/02 06:33:44;;;;;;;10.10;9.10;;;;;;;19.24;89.08;96960.80;106612;1260;22539;-75
2023/07/02 06:36:12;;;;;;;14.00;9.50;;;;;;;19.23;88.74;96962.30;106750;1270;22554;-75
2023/07/02 06:38:41;;;;;;;16.10;9.70;;;;;;;19.24;88.52;96963.86;106795;1270;22578;-76
2023/07/02 06:41:08;;;;;;;12.10;8.40;;;;;;;19.24;88.07;96966.83;106800;1277;25403;-77
2023/07/02 06:43:34;;;;;;;10.00;8.90;;;;;;;19.26;88.24;96967.77;106828;1270;25291;-75
2023/07/02 06:46:01;;;;;;;12.90;9.50;;;;;;;19.28;87.78;96966.92;106757;1270;23912;-75
2023/07/02 06:48:28;;;;;;;11.00;9.10;;;;;;;19.29;87.69;96968.11;106721;1270;24232;-76
2023/07/02 06:50:55;;;;;;;10.30;8.90;;;;;;;19.33;86.64;96970.79;106760;1277;24238;-76
2023/07/02 06:53:22;;;;;;;11.70;8.40;;;;;;;19.31;86.87;96971.09;106721;1270;25539;-76
2023/07/02 06:55:48;;;;;;;11.40;9.20;;;;;;;19.33;86.90;96972.20;106651;1276;24291;-76
2023/07/02 06:58:15;;;;;;;10.30;9.20;;;;;;;19.34;86.41;96970.17;106681;1277;24206;-76
2023/07/02 07:00:42;;;;;;;10.30;9.20;;;;;;;19.34;86.28;96970.42;106499;1276;23388;-76
2023/07/02 07:03:08;;;;;;;10.30;8.90;;;;;;;19.35;86.56;96976.03;106616;1276;22538;-75
2023/07/02 07:05:35;;;;;;;11.90;9.90;;;;;;;19.35;86.36;96976.35;106714;1276;22548;-76
2023/07/02 07:08:02;;;;;;;11.70;10.50;;;;;;;19.37;85.65;96975.11;106727;1277;24401;-76
2023/07/02 07:10:33;;;;;;;10.70;9.60;;;;;;;19.38;86.37;96974.03;106520;1277;25376;-76
2023/07/02 07:13:04;;;;;;;12.10;10.50;;;;;;;19.47;85.92;96976.52;106718;1273;22534;-77
2023/07/02 07:15:34;;;;;;;12.10;8.90;;;;;;;19.55;85.96;96979.55;106805;1277;25413;-81
2023/07/02 07:18:01;;;;;;;13.20;8.60;;;;;;;19.68;85.90;96977.30;106709;1277;25281;-75
2023/07/02 07:20:30;;;;;;;11.90;9.10;;;;;;;19.81;85.11;96980.91;106787;1276;24235;-76
2023/07/02 07:22:57;;;;;;;11.40;9.10;;;;;;;19.85;84.57;96983.20;106735;1276;22530;-76
2023/07/02 07:25:24;;;;;;;9.50;8.60;;;;;;;19.90;84.22;96988.38;106629;1276;22531;-77
2023/07/02 07:27:51;;;;;;;10.10;8.90;;;;;;;19.92;83.06;96991.36;106659;1277;22534;-77
2023/07/02 07:30:22;;;;;;;11.30;8.50;;;;;;;19.88;83.83;96998.61;106727;1254;22531;-76
2023/07/02 07:32:50;;;;;;;9.80;8.80;;;;;;;19.88;83.69;97000.95;106836;1276;22538;-76
2023/07/02 07:35:18;;;;;;;10.30;9.30;;;;;;;19.92;83.15;97004.17;106639;1276;22546;-75
2023/07/02 07:37:45;;;;;;;10.40;9.30;;;;;;;20.05;82.89;97003.52;106818;1270;24255;-76
2023/07/02 07:40:12;;;;;;;13.90;8.50;;;;;;;20.17;82.02;97000.55;106617;1269;22655;-75
2023/07/02 07:42:39;;;;;;;13.90;9.20;;;;;;;20.31;81.58;97002.17;106717;1276;22541;-75
2023/07/02 07:45:06;;;;;;;10.30;8.20;;;;;;;20.50;81.47;97008.98;106644;1276;24205;-74
2023/07/02 07:47:33;;;;;;;8.60;7.50;;;;;;;20.72;80.39;97006.17;106758;1276;22533;-74
2023/07/02 07:50:00;;;;;;;9.80;6.90;;;;;;;20.85;78.47;97014.74;106719;1276;26175;-75
2023/07/02 07:52:27;;;;;;;10.50;7.30;;;;;;;20.86;76.90;97014.27;106757;1259;23017;-75
2023/07/02 07:54:53;;;;;;;9.60;8.50;;;;;;;20.92;77.36;97014.89;106655;1266;24196;-75
2023/07/02 07:57:20;;;;;;;10.90;7.30;;;;;;;21.10;76.31;97013.91;106750;1276;22538;-75
2023/07/02 07:59:46;;;;;;;9.30;7.20;;;;;;;21.21;74.69;97015.58;106776;1276;25290;-74
2023/07/02 08:02:13;;;;;;;13.00;7.90;;;;;;;21.27;74.41;97013.38;106711;1276;22948;-76
2023/07/02 08:04:40;;;;;;;12.20;7.60;;;;;;;21.31;73.84;97011.76;106752;1276;25363;-75
2023/07/02 08:07:08;;;;;;;11.30;8.00;;;;;;;21.32;72.79;97019.59;106757;1276;25233;-74
2023/07/02 08:09:35;;;;;;;12.70;8.20;;;;;;;21.28;72.54;97010.73;106691;1274;26635;-75
2023/07/02 08:12:03;;;;;;;10.40;7.80;;;;;;;21.23;72.33;97012.30;106704;1276;22956;-76
2023/07/02 08:14:29;;;;;;;9.30;7.50;;;;;;;21.11;72.06;97015.64;106720;1276;22525;-75
2023/07/02 08:16:56;;;;;;;8.20;7.20;;;;;;;20.96;72.87;97019.92;106690;1276;23812;-75
2023/07/02 08:19:22;;;;;;;8.50;7.50;;;;;;;20.89;72.97;97021.78;106680;1276;24241;-74
2023/07/02 08:21:50;;;;;;;10.70;7.10;;;;;;;20.83;73.49;97022.32;106701;1276;22579;-74
2023/07/02 08:24:17;;;;;;;8.70;6.40;;;;;;;20.83;74.17;97020.99;106678;1276;23291;-75
2023/07/02 08:26:44;;;;;;;8.10;6.20;;;;;;;20.84;73.39;97028.04;106726;1276;25290;-75
2023/07/02 08:29:11;;;;;;;7.60;6.30;;;;;;;20.80;72.44;97025.75;106864;1276;23291;-76
2023/07/02 08:31:38;;;;;;;8.10;6.90;;;;;;;20.75;70.80;97024.25;106726;1276;22639;-75
2023/07/02 08:34:05;;;;;;;10.20;5.90;;;;;;;20.68;71.77;97028.15;106735;1276;22543;-77
2023/07/02 08:36:31;;;;;;;9.30;6.80;;;;;;;20.70;71.75;97031.52;106757;1276;22536;-78
2023/07/02 08:38:58;;;;;;;6.60;5.60;;;;;;;20.69;71.91;97028.85;106906;1276;22655;-77
2023/07/02 08:41:25;;;;;;;7.80;5.70;;;;;;;20.64;71.84;97028.76;106934;1276;22586;-76
2023/07/02 08:43:55;;;;;;;8.80;5.70;;;;;;;20.58;71.60;97039.05;106882;1276;24589;-75
2023/07/02 08:46:22;;;;;;;8.80;6.10;;;;;;;20.65;71.25;97040.02;106649;1276;22652;-76
2023/07/02 08:48:48;;;;;;;9.30;5.70;;;;;;;20.75;71.03;97040.77;106668;1276;24244;-75
2023/07/02 08:51:15;;;;;;;5.90;5.10;;;;;;;20.80;70.23;97042.56;106680;1277;22657;-76
2023/07/02 08:53:42;;;;;;;9.70;5.50;;;;;;;20.82;70.04;97038.04;106675;1276;24197;-76
2023/07/02 08:56:08;;;;;;;10.30;5.50;;;;;;;20.86;69.55;97046.89;106655;1276;25333;-77
2023/07/02 08:58:35;;;;;;;8.30;5.70;;;;;;;20.75;68.87;97048.27;106917;1276;25290;-76
2023/07/02 09:01:10;;;;;;;7.30;5.20;;;;;;;20.58;69.33;97041.95;106637;1276;22547;-76
2023/07/02 09:03:38;;;;;;;6.70;5.30;;;;;;;20.49;70.07;97045.86;106620;1276;25236;-75
2023/07/02 09:06:09;;;;;;;11.40;5.20;;;;;;;20.48;69.91;97053.77;106710;1276;24336;-75
2023/07/02 09:08:37;;;;;;;10.40;5.90;;;;;;;20.46;69.58;97059.38;106714;1276;24231;-78
2023/07/02 09:11:17;;;;;;;6.40;4.80;;;;;;;20.40;69.79;97059.91;106655;1276;24249;-76
2023/07/02 09:13:46;;;;;;;7.50;4.90;;;;;;;20.36;70.15;97063.24;106620;1276;25412;-76
2023/07/02 09:16:29;;;;;;;9.00;5.10;;;;;;;20.33;70.52;97063.07;106837;1276;24242;-76
2023/07/02 09:19:00;;;;;;;9.60;5.20;;;;;;;20.25;70.92;97069.44;106622;1276;22657;-75
2023/07/02 09:21:48;;;;;;;10.30;5.00;;;;;;;20.15;71.93;97082.04;106628;1276;26610;-75
2023/07/02 09:24:19;;;;;;;8.10;5.20;;;;;;;19.98;73.13;97082.79;106535;1276;25307;-75
2023/07/02 09:26:51;;;;;;;6.60;4.80;;;;;;;19.83;73.99;97090.34;106617;1276;22722;-74
2023/07/02 09:29:22;;;;;;;9.70;5.20;;;;;;;19.78;74.63;97095.53;106637;1269;25284;-74
2023/07/02 09:31:49;;;;;;;7.60;5.30;;;;;;;19.71;75.47;97095.24;106727;1276;25481;-74
2023/07/02 09:34:39;;;;;;;10.30;5.20;;;;;;;19.65;76.56;97094.63;106714;1276;22577;-74
2023/07/02 09:37:06;;;;;;;6.60;5.20;;;;;;;19.67;76.74;97098.33;106751;1276;24381;-74
2023/07/02 09:39:35;;;;;;;6.00;5.30;;;;;;;19.64;76.78;97100.09;106667;1276;22530;-75
2023/07/02 09:42:06;;;;;;;7.70;4.90;;;;;;;19.56;77.41;97099.08;106623;1276;22538;-74
2023/07/02 09:44:34;;;;;;;7.50;5.30;;;;;;;19.51;77.95;97092.64;106628;1276;25406;-75
2023/07/02 09:47:04;;;;;;;7.70;5.20;;;;;;;19.59;79.60;97093.70;106696;1276;25359;-75
2023/07/02 09:49:36;;;;;;;9.70;6.20;;;;;;;19.62;82.33;97090.55;106673;1276;24277;-74
2023/07/02 09:52:06;;;;;;;7.80;6.40;;;;;;;19.50;84.22;97091.21;106645;1276;22622;-75
2023/07/02 09:54:34;;;;;;;7.40;6.40;;;;;;;19.41;84.88;97093.40;106716;1276;25335;-74
2023/07/02 09:57:02;;;;;;;8.00;6.50;;;;;;;19.32;84.27;97096.52;106483;1277;25789;-76
2023/07/02 09:59:29;;;;;;;7.00;5.60;;;;;;;19.43;83.88;97088.42;106856;1276;24261;-75
2023/07/02 10:01:56;;;;;;;6.20;5.60;;;;;;;19.50;83.43;97089.50;106649;1276;24278;-75
2023/07/02 10:04:23;;;;;;;7.50;5.20;;;;;;;19.60;83.29;97083.80;106598;1276;22554;-74
2023/07/02 10:06:53;;;;;;;6.00;5.40;;;;;;;19.69;81.96;97091.94;106662;1276;24262;-75
2023/07/02 10:09:21;;;;;;;11.90;6.30;;;;;;;19.78;81.33;97086.23;106737;1276;25288;-75
2023/07/02 10:11:48;;;;;;;6.90;5.60;;;;;;;20.00;80.50;97079.38;108767;1276;22672;-75
2023/07/02 10:14:15;;;;;;;6.40;5.00;;;;;;;20.17;80.39;97078.30;107290;1276;22557;-76
2023/07/02 10:16:52;;;;;;;8.20;5.80;;;;;;;20.32;80.14;97080.73;106717;1276;22538;-76
2023/07/02 10:19:20;;;;;;;9.90;6.40;;;;;;;20.46;79.17;97078.30;106653;1276;22610;-76
2023/07/02 10:22:00;;;;;;;10.90;6.20;;;;;;;20.54;78.23;97077.04;106638;1276;22525;-76
2023/07/02 10:24:26;;;;;;;9.60;6.40;;;;;;;20.58;77.00;97079.95;106690;1276;23957;-75
2023/07/02 10:27:01;;;;;;;8.80;6.70;;;;;;;20.58;76.53;97075.88;106662;1276;24265;-75
2023/07/02 10:29:28;;;;;;;10.70;6.30;;;;;;;20.78;76.17;97066.50;106723;1276;25418;-76
2023/07/02 10:31:57;;;;;;;10.40;6.60;;;;;;;21.07;75.02;97061.41;106966;1276;22663;-77
2023/07/02 10:34:31;;;;;;;7.80;6.30;;;;;;;21.21;74.79;97059.32;107062;1277;22588;-75
2023/07/02 10:36:58;;;;;;;8.20;6.50;;;;;;;21.35;73.58;97060.29;106639;1276;25214;-75
2023/07/02 10:39:26;;;;;;;11.20;7.00;;;;;;;21.24;73.44;97059.42;106656;1276;25510;-75
2023/07/02 10:41:52;;;;;;;10.10;7.10;;;;;;;21.31;73.61;97061.40;106655;1276;26534;-74
2023/07/02 10:44:19;;;;;;;8.80;7.00;;;;;;;21.44;73.26;97054.21;106632;1276;24185;-77
2023/07/02 10:46:49;;;;;;;9.40;6.60;;;;;;;21.43;72.74;97057.98;107056;1276;24206;-76
2023/07/02 10:49:17;;;;;;;10.20;6.80;;;;;;;21.35;72.69;97057.32;106701;1276;22537;-75
2023/07/02 10:51:44;;;;;;;9.60;6.10;;;;;;;21.28;72.89;97055.27;106938;1276;22633;-77
2023/07/02 10:54:11;;;;;;;8.30;6.40;;;;;;;21.24;72.55;97055.19;106791;1276;23158;-76
2023/07/02 10:56:38;;;;;;;10.40;6.40;;;;;;;21.30;72.32;97057.15;106996;1276;24273;-75
2023/07/02 10:59:04;;;;;;;7.50;6.70;;;;;;;21.36;72.55;97056.38;106683;1277;24003;-75
2023/07/02 11:01:31;;;;;;;7.00;6.00;;;;;;;21.57;72.13;97055.25;106685;1276;25316;-76
2023/07/02 11:04:04;;;;;;;10.40;6.10;;;;;;;21.81;71.25;97050.60;106708;1276;22573;-76
2023/07/02 11:06:32;;;;;;;9.40;6.30;;;;;;;21.80;70.44;97054.84;106687;1276;22531;-78
2023/07/02 11:09:00;;;;;;;8.70;6.60;;;;;;;21.69;70.08;97056.57;106702;1276;23360;-77
2023/07/02 11:11:27;;;;;;;9.30;5.40;;;;;;;21.53;70.11;97050.70;106769;1276;22548;-76
2023/07/02 11:13:54;;;;;;;9.60;6.50;;;;;;;21.66;70.92;97048.19;107003;1269;24432;-76
2023/07/02 11:16:29;;;;;;;8.30;6.00;;;;;;;21.97;70.10;97044.47;106624;1276;25251;-77
2023/07/02 11:19:09;;;;;;;7.30;6.00;;;;;;;21.96;70.09;97040.09;106748;1256;24336;-76